ADDS METAR Data INFO
IDs: Format: Raw Decoded Include TAF

Data at: 0106 UTC 24 Jun 2018

KMCD 240055Z AUTO 00000KT 10SM SCT080 18/14 A2979 RMK AO2 T01800143
KMCD 240035Z AUTO 12003KT 10SM CLR 18/14 A2979 RMK AO2 T01820143
KMCD 240015Z AUTO 00000KT 10SM SCT060 18/15 A2979 RMK AO2 T01820145
KMCD 232355Z AUTO 14005KT 10SM BKN050 OVC060 19/14 A2979 RMK AO2 T01860144 10198 20176
KMCD 232335Z AUTO 13005KT 10SM BKN050 OVC095 19/15 A2978 RMK AO2 T01900145
KMCD 232315Z AUTO 11004KT 10SM SCT048 OVC095 19/15 A2978 RMK AO2 T01870148
KMCD 232255Z AUTO 12006KT 10SM OVC095 19/15 A2978 RMK AO2 T01920152
KMCD 232235Z AUTO 13003KT 10SM OVC095 19/15 A2978 RMK AO2 T01860152
KMCD 232215Z AUTO 14003KT 10SM SCT065 OVC095 18/15 A2977 RMK AO2 T01830152
KMCD 232155Z AUTO 18003KT 10SM SCT070 SCT075 OVC095 19/15 A2978 RMK AO2 T01850150
KMCD 232135Z AUTO 00000KT 10SM SCT070 OVC095 19/15 A2977 RMK AO2 T01900149
KMCD 232115Z AUTO 12007KT 10SM OVC070 19/15 A2978 RMK AO2 T01870154
KMCD 232055Z AUTO 11007G15KT 080V140 10SM BKN070 18/15 A2978 RMK AO2 T01790151
KMCD 232035Z AUTO 10011G14KT 10SM BKN060 18/16 A2977 RMK AO2 T01790156
KMCD 232015Z AUTO 09010G15KT 10SM BKN060 18/15 A2977 RMK AO2 T01830154
KMCD 231955Z AUTO 11006KT 10SM CLR 19/16 A2977 RMK AO2 T01850155
KMCD 231935Z AUTO 09007G15KT 10SM SCT021 20/16 A2977 RMK AO2 T01950157
KMCD 231915Z AUTO 10009G16KT 10SM SCT021 20/16 A2977 RMK AO2 T01980159
KMCD 231855Z AUTO 10012G18KT 090V170 10SM SCT021 SCT030 SCT055 19/16 A2976 RMK AO2 T01890157
KMCD 231835Z AUTO 11010G18KT 080V170 10SM SCT004 SCT030 BKN055 18/16 A2976 RMK AO2 T01840155
KMCD 231815Z AUTO 11010G14KT 10SM SCT055 18/15 A2977 RMK AO2 T01810146
KMCD 231755Z AUTO 10009G16KT 10SM CLR 19/14 A2975 RMK AO2 T01900141 10191 20149
KMCD 231735Z AUTO 10007G14KT 10SM CLR 19/14 A2976 RMK AO2 T01850139
KMCD 231715Z AUTO 09007KT 10SM SCT021 19/14 A2977 RMK AO2 T01850138
KMCD 231655Z AUTO 07006KT 10SM OVC019 19/14 A2977 RMK AO2 T01900141
KMCD 231635Z AUTO 08009KT 10SM SCT013 OVC019 18/14 A2979 RMK AO2 T01800140
KMCD 231615Z AUTO 10006KT 10SM BKN013 OVC025 17/13 A2980 RMK AO2 T01730126
KMCD 231555Z AUTO 10005KT 10SM SCT019 BKN025 OVC080 18/13 A2978 RMK AO2 T01750128
KMCD 231535Z AUTO 09005KT 10SM SCT017 OVC080 18/13 A2979 RMK AO2 T01770131
KMCD 231515Z AUTO 08004KT 10SM OVC070 18/13 A2979 RMK AO2 T01750128
KMCD 231455Z AUTO 07004KT 10SM SCT014 OVC070 17/13 A2978 RMK AO2 T01700126
KMCD 231435Z AUTO 07005KT 10SM SCT014 OVC070 17/13 A2979 RMK AO2 T01670127
KMCD 231415Z AUTO 06005KT 10SM OVC075 16/13 A2979 RMK AO2 T01640126
KMCD 231355Z AUTO 07006KT 10SM OVC075 16/13 A2979 RMK AO2 T01620127
KMCD 231335Z AUTO 06007KT 10SM SCT065 OVC075 16/12 A2979 RMK AO2 T01600123
KMCD 231315Z AUTO 06007KT 10SM BKN050 BKN065 OVC075 16/12 A2979 RMK AO2 T01560122
KMCD 231255Z AUTO 06005KT 10SM OVC050 15/12 A2979 RMK AO2 T01530123
KMCD 231235Z AUTO 06006KT 10SM BKN050 OVC065 15/12 A2980 RMK AO2 T01520121
KMCD 231215Z AUTO 05006KT 10SM RA SCT046 OVC055 15/12 A2979 RMK AO2 T01510124
KMCD 231155Z AUTO 06007KT 10SM OVC055 15/12 A2980 RMK AO2 T01470124 10147 20122
KMCD 231135Z AUTO 08008KT 10SM OVC055 15/12 A2979 RMK AO2 T01460120
KMCD 231115Z AUTO 06010KT 10SM OVC055 15/12 A2979 RMK AO2 T01460118
KMCD 231055Z AUTO 07008KT 10SM OVC055 15/12 A2979 RMK AO2 T01450115
KMCD 231035Z AUTO 08009KT 10SM OVC055 15/12 A2979 RMK AO2 T01450118
KMCD 231015Z AUTO 07009KT 10SM OVC055 15/12 A2978 RMK AO2 T01450117
KMCD 230955Z AUTO 08008KT 10SM BKN055 BKN110 14/11 A2978 RMK AO2 T01430113
KMCD 230935Z AUTO 08008KT 10SM CLR 14/11 A2978 RMK AO2 T01410114
KMCD 230916Z AUTO 08007KT 10SM CLR 14/12 A2978 RMK AO2 T01400116
KMCD 230855Z AUTO 07007KT 10SM CLR 14/11 A2978 RMK AO2 T01420112
KMCD 230835Z AUTO 08008KT 10SM CLR 14/11 A2979 RMK AO2 T01420108
KMCD 230815Z AUTO 07009KT 10SM CLR 14/10 A2980 RMK AO2 T01400104
KMCD 230755Z AUTO 07006KT 10SM CLR 13/10 A2980 RMK AO2 T01310100
KMCD 230735Z AUTO 07006KT 10SM CLR 13/10 A2981 RMK AO2 T01260095
KMCD 230715Z AUTO 06005KT 10SM CLR 13/09 A2981 RMK AO2 T01250092
KMCD 230655Z AUTO 06006KT 10SM CLR 13/09 A2982 RMK AO2 T01270090
KMCD 230635Z AUTO 06007KT 10SM CLR 13/09 A2982 RMK AO2 T01320086
KMCD 230615Z AUTO 07007KT 10SM CLR 13/08 A2982 RMK AO2 T01320079
KMCD 230555Z AUTO 07008KT 10SM CLR 14/08 A2983 RMK AO2 T01360081 10165 20121
KMCD 230535Z AUTO 08007KT 10SM CLR 13/10 A2983 RMK AO2 T01270095
KMCD 230515Z AUTO 08007KT 10SM CLR 13/10 A2984 RMK AO2 T01250097
KMCD 230455Z AUTO 08007KT 10SM CLR 13/10 A2984 RMK AO2 T01250101
KMCD 230435Z AUTO 08006KT 10SM CLR 12/10 A2984 RMK AO2 T01240096
KMCD 230415Z AUTO 09006KT 10SM CLR 12/09 A2985 RMK AO2 T01220087
KMCD 230355Z AUTO 09006KT 10SM CLR 13/08 A2984 RMK AO2 T01300078 401850106
KMCD 230335Z AUTO 11005KT 10SM CLR 14/06 A2985 RMK AO2 T01410060
KMCD 230315Z AUTO 12007KT 10SM CLR 16/05 A2985 RMK AO2 T01580047
KMCD 230255Z AUTO 11008KT 10SM CLR 16/05 A2985 RMK AO2 T01600045
KMCD 230235Z AUTO 10008KT 10SM CLR 17/05 A2985 RMK AO2 T01650045
KMCD 230215Z AUTO 11009KT 10SM CLR 16/05 A2985 RMK AO2 T01610052
KMCD 230155Z AUTO 11009KT 10SM CLR 16/06 A2985 RMK AO2 T01570055
KMCD 230135Z AUTO 10010KT 10SM CLR 16/06 A2985 RMK AO2 T01560059
KMCD 230115Z AUTO 09011KT 10SM CLR 16/06 A2985 RMK AO2 T01550061
KMCD 230055Z AUTO 10011G15KT 10SM CLR 16/05 A2987 RMK AO2 T01610051
KMCD 230035Z AUTO 10009G14KT 10SM CLR 16/06 A2987 RMK AO2 T01640064
KMCD 230015Z AUTO 10010G14KT 10SM CLR 16/08 A2987 RMK AO2 T01600079
KMCD 222355Z AUTO 09008G14KT 10SM CLR 16/09 A2988 RMK AO2 T01610089 10185 20156
KMCD 222335Z AUTO 09008KT 10SM CLR 16/09 A2988 RMK AO2 T01610093
KMCD 222315Z AUTO 09008KT 10SM CLR 17/09 A2988 RMK AO2 T01660093
KMCD 222255Z AUTO 10007KT 10SM CLR 16/10 A2989 RMK AO2 T01620101
KMCD 222235Z AUTO 09008KT 10SM CLR 16/10 A2989 RMK AO2 T01610095
KMCD 222215Z AUTO 09007KT 10SM CLR 16/10 A2990 RMK AO2 T01580104
KMCD 222155Z AUTO 08006KT 10SM CLR 16/11 A2990 RMK AO2 T01600108
KMCD 222135Z AUTO 09009G14KT 10SM CLR 16/10 A2990 RMK AO2 T01630103
KMCD 222115Z AUTO 08008KT 10SM CLR 17/10 A2990 RMK AO2 T01660102
KMCD 222055Z AUTO 08009KT 10SM CLR 17/10 A2990 RMK AO2 T01670099
KMCD 222035Z AUTO 09010G15KT 10SM CLR 17/10 A2991 RMK AO2 T01670101
KMCD 222015Z AUTO 10008G15KT 10SM CLR 17/09 A2991 RMK AO2 T01680091
KMCD 221955Z AUTO 09012G16KT 10SM CLR 17/10 A2991 RMK AO2 T01680096
KMCD 221935Z AUTO 09010G15KT 10SM CLR 16/10 A2991 RMK AO2 T01600101
KMCD 221915Z AUTO 09006KT 10SM CLR 18/10 A2992 RMK AO2 T01780100
KMCD 221855Z AUTO 09008KT 10SM CLR 18/09 A2992 RMK AO2 T01800094
KMCD 221835Z AUTO 08009G15KT 060V140 10SM CLR 18/09 A2993 RMK AO2 T01830094
KMCD 221815Z AUTO 09008G16KT 050V110 10SM CLR 16/10 A2993 RMK AO2 T01630096
KMCD 221755Z AUTO 09009G16KT 10SM CLR 16/10 A2994 RMK AO2 T01610101 10173 20149
KMCD 221735Z AUTO 08010G15KT 10SM CLR 16/11 A2996 RMK AO2 T01560107
KMCD 221715Z AUTO 09006G14KT 10SM CLR 17/11 A2996 RMK AO2 T01700105
KMCD 221655Z AUTO 08010G14KT 10SM CLR 16/11 A2996 RMK AO2 T01590108
KMCD 221635Z AUTO 09010G15KT 10SM CLR 16/11 A2997 RMK AO2 T01630110
KMCD 221615Z AUTO 08006G15KT 050V110 10SM CLR 16/10 A2998 RMK AO2 T01610104
KMCD 221555Z AUTO 08008G14KT 10SM CLR 17/11 A2997 RMK AO2 T01680105
KMCD 221535Z AUTO 09005G15KT 070V130 10SM CLR 16/10 A2997 RMK AO2 T01630100
KMCD 221515Z AUTO 09012G16KT 10SM CLR 17/10 A2997 RMK AO2 T01690098
KMCD 221455Z AUTO 10009G14KT 10SM CLR 17/09 A2997 RMK AO2 T01680093
KMCD 221435Z AUTO 09005G17KT 10SM CLR 17/09 A2997 RMK AO2 T01700094
KMCD 221415Z AUTO 10009G15KT 10SM CLR 17/09 A2997 RMK AO2 T01660092
KMCD 221355Z AUTO 09006G15KT 10SM CLR 17/10 A2997 RMK AO2 T01680096
KMCD 221335Z AUTO 10010G14KT 10SM CLR 17/09 A2997 RMK AO2 T01650092
KMCD 221315Z AUTO 09005G16KT 050V130 10SM CLR 17/09 A2997 RMK AO2 T01660092